Disclaimer

Please do not use the information listed here in-flight or in-navigation, as they are not provided to us by the airports but are provided by volunteers, so they might be outdated.

Search


Regions


Airport information page

No radio frequency information is available.

Airport informations:
Latitude: 25° 47' 54.40" S
Longitude: 025° 32' 52.90" E
Elevation: 4181 feet - 1274 meters
Operating hours: Remarks
Operating agency: Civil government, landing fees and diplomatic clearance may be required
Timezone: UTC+2
Fuel: Jet A1, without icing nhibitor.

100/130 MIL Spec, low lead, aviation gasoline (BLUE)

Runway information:
04/22 - 15157 x 148 feet< - >4620 x 45 meters

Recent METARs:
FAMM 160900Z 34007KT CAVOK 34/07 Q1023 NOSIG
FAMM 161000Z 33007KT CAVOK 34/07 Q1022 NOSIG
FAMM 161000Z 33007KT CAVOK 34/07 Q1022 NOSIG

Airport on the map: